Time;durP1;ratioP1;P1;durP2;ratioP2;P2;SDS_P1;SDS_P2;PMS_P1;PMS_P2;Temp;Humidity;BMP_temperature;BMP_pressure;BME280_temperature;BME280_humidity;BME280_pressure;Samples;Min_cycle;Max_cycle;Signal;HPM_P1;HPM_P2
2021/03/08 00:01:33;;;;;;;10.38;4.33;;;;;;;4.33;66.54;101178.20;1738933;82;21158;-56
2021/03/08 00:04:01;;;;;;;17.60;4.50;;;;;;;4.23;66.53;101177.08;1739137;82;21189;-56
2021/03/08 00:06:30;;;;;;;12.60;6.00;;;;;;;4.14;66.65;101167.34;1739187;82;21121;-56
2021/03/08 00:08:59;;;;;;;11.78;6.30;;;;;;;4.09;66.76;101167.63;1738891;82;21189;-55
2021/03/08 00:11:28;;;;;;;15.63;5.28;;;;;;;4.04;66.87;101169.25;1769832;80;21164;-56
2021/03/08 00:13:56;;;;;;;11.25;4.50;;;;;;;3.97;67.01;101155.19;1780135;80;21163;-56
2021/03/08 00:16:24;;;;;;;8.30;4.05;;;;;;;3.98;67.16;101156.05;1785719;80;21099;-56
2021/03/08 00:18:52;;;;;;;9.85;4.37;;;;;;;3.99;67.33;101150.02;1785683;79;21186;-56
2021/03/08 00:21:20;;;;;;;10.28;5.17;;;;;;;4.03;67.39;101148.82;1781301;80;21163;-56
2021/03/08 00:23:47;;;;;;;8.15;4.33;;;;;;;4.11;67.34;101146.84;1767611;80;22234;-56
2021/03/08 00:26:15;;;;;;;10.98;3.62;;;;;;;4.11;67.29;101146.41;1766010;81;21158;-56
2021/03/08 00:28:43;;;;;;;8.25;3.08;;;;;;;4.17;67.30;101140.08;1766008;81;21176;-56
2021/03/08 00:31:11;;;;;;;9.33;2.95;;;;;;;4.27;67.16;101136.38;1765984;80;21146;-56
2021/03/08 00:33:40;;;;;;;9.78;3.52;;;;;;;4.38;67.03;101135.80;1766132;80;21162;-56
2021/03/08 00:36:07;;;;;;;9.38;3.67;;;;;;;4.49;66.76;101132.13;1766087;81;22189;-56
2021/03/08 00:38:35;;;;;;;9.05;3.30;;;;;;;4.65;66.53;101125.98;1765593;80;21194;-56
2021/03/08 00:41:03;;;;;;;11.28;3.77;;;;;;;4.74;66.16;101123.13;1782064;80;21198;-56
2021/03/08 00:43:31;;;;;;;8.40;2.95;;;;;;;4.75;65.90;101126.20;1773960;80;21159;-56
2021/03/08 00:45:58;;;;;;;9.50;3.72;;;;;;;4.68;65.80;101121.70;1765960;80;21176;-56
2021/03/08 00:48:26;;;;;;;11.63;3.98;;;;;;;4.64;65.76;101115.09;1773165;80;22189;-56
2021/03/08 00:50:54;;;;;;;9.28;2.85;;;;;;;4.57;65.82;101111.45;1787078;80;21127;-56
2021/03/08 00:53:23;;;;;;;11.78;3.62;;;;;;;4.59;65.88;101104.56;1756519;81;21594;-56
2021/03/08 00:55:51;;;;;;;7.33;2.87;;;;;;;4.60;65.84;101101.09;1767998;81;21180;-56
2021/03/08 00:58:20;;;;;;;9.83;2.72;;;;;;;4.64;65.85;101099.45;1756734;81;21126;-56
2021/03/08 01:00:48;;;;;;;5.87;2.33;;;;;;;4.74;65.76;101096.20;1769202;81;21231;-56
2021/03/08 01:03:16;;;;;;;6.78;2.58;;;;;;;4.85;65.53;101095.98;1756672;81;21170;-56
2021/03/08 01:05:45;;;;;;;8.00;3.55;;;;;;;4.88;65.35;101096.48;1767948;80;21555;-56
2021/03/08 01:08:15;;;;;;;13.03;3.80;;;;;;;4.88;65.25;101098.65;1756443;81;21134;-55
2021/03/08 01:10:44;;;;;;;10.28;3.42;;;;;;;4.84;65.16;101094.24;1778767;79;21119;-55
2021/03/08 01:13:14;;;;;;;7.92;3.37;;;;;;;4.78;65.15;101088.00;1777137;80;21415;-55
2021/03/08 01:15:42;;;;;;;7.67;3.55;;;;;;;4.77;65.19;101093.65;1791276;80;21151;-55
2021/03/08 01:18:10;;;;;;;11.35;4.08;;;;;;;4.79;65.10;101089.34;1791085;80;21130;-56
2021/03/08 01:20:37;;;;;;;12.90;3.52;;;;;;;4.75;65.10;101085.80;1790745;80;21174;-55
2021/03/08 01:23:05;;;;;;;6.08;2.87;;;;;;;4.71;65.13;101087.02;1790771;80;21166;-54
2021/03/08 01:25:33;;;;;;;4.70;3.10;;;;;;;4.67;65.25;101084.74;1791343;80;22821;-55
2021/03/08 01:28:00;;;;;;;8.40;3.22;;;;;;;4.67;65.25;101089.09;1791328;80;21170;-55
2021/03/08 01:30:32;;;;;;;7.70;2.98;;;;;;;4.62;65.33;101083.78;1791299;80;21162;-55
2021/03/08 01:32:59;;;;;;;7.97;3.27;;;;;;;4.54;65.43;101070.59;1789988;80;21222;-55
2021/03/08 01:35:27;;;;;;;7.42;2.72;;;;;;;4.48;65.60;101073.47;1789710;80;21174;-55
2021/03/08 01:37:55;;;;;;;6.97;3.05;;;;;;;4.42;65.74;101064.21;1789468;80;22632;-55
2021/03/08 01:40:24;;;;;;;7.65;3.20;;;;;;;4.35;65.90;101060.17;1789582;80;21182;-55
2021/03/08 01:42:52;;;;;;;12.60;3.30;;;;;;;4.33;65.99;101059.67;1789567;80;21151;-55
2021/03/08 01:45:21;;;;;;;11.00;3.15;;;;;;;4.30;66.09;101061.78;1789382;80;21158;-56
2021/03/08 01:47:48;;;;;;;9.03;3.55;;;;;;;4.28;66.21;101062.18;1789567;79;21198;-55
2021/03/08 01:50:25;;;;;;;6.45;2.62;;;;;;;4.28;66.29;101059.57;1788989;80;22408;-55
2021/03/08 01:52:52;;;;;;;3.80;2.70;;;;;;;4.24;66.41;101065.55;1788898;79;21146;-55
2021/03/08 01:55:20;;;;;;;8.83;3.30;;;;;;;4.23;66.49;101063.78;1789050;80;21162;-55
2021/03/08 01:57:48;;;;;;;10.03;2.67;;;;;;;4.22;66.54;101058.14;1762738;80;21178;-56
2021/03/08 02:00:19;;;;;;;11.30;3.08;;;;;;;4.21;66.56;101058.53;1788963;80;21572;-56
2021/03/08 02:02:46;;;;;;;5.97;3.25;;;;;;;4.19;66.58;101056.33;1778059;79;21192;-56
2021/03/08 02:05:17;;;;;;;8.18;2.87;;;;;;;4.15;66.69;101058.40;1771758;81;21182;-56
2021/03/08 02:07:44;;;;;;;10.82;3.50;;;;;;;4.15;66.74;101053.19;1769305;81;21167;-56
2021/03/08 02:10:14;;;;;;;10.58;3.75;;;;;;;4.18;66.69;101050.66;1769447;81;21123;-56
2021/03/08 02:13:00;;;;;;;10.43;3.10;;;;;;;4.21;66.66;101047.25;1769456;80;21189;-56
2021/03/08 02:15:53;;;;;;;9.35;3.37;;;;;;;4.18;66.61;101043.28;1769428;81;21335;-56
2021/03/08 02:18:59;;;;;;;5.37;3.00;;;;;;;4.13;66.71;101047.08;1769324;80;21181;-56
2021/03/08 02:22:25;;;;;;;7.80;3.08;;;;;;;4.13;66.77;101044.48;1769330;80;21116;-56
2021/03/08 02:25:33;;;;;;;11.10;2.75;;;;;;;4.11;66.81;101046.14;1716962;83;21156;-56
2021/03/08 02:28:27;;;;;;;7.90;3.20;;;;;;;4.21;66.88;101045.52;1717591;83;21206;-56
2021/03/08 02:30:58;;;;;;;9.03;3.12;;;;;;;4.32;66.62;101047.48;1766513;80;22596;-56
2021/03/08 02:33:31;;;;;;;8.23;3.02;;;;;;;4.28;66.56;101048.28;1781657;80;21178;-56
2021/03/08 02:36:03;;;;;;;9.68;3.55;;;;;;;4.25;66.58;101045.61;1769194;80;21202;-56
2021/03/08 02:38:33;;;;;;;10.98;3.25;;;;;;;4.20;66.59;101043.78;1768423;81;21191;-56
2021/03/08 02:41:16;;;;;;;9.38;3.98;;;;;;;4.20;66.68;101038.97;1749066;81;21615;-56
2021/03/08 02:43:46;;;;;;;12.28;3.52;;;;;;;4.20;66.77;101038.97;1749316;81;21230;-57
2021/03/08 02:46:21;;;;;;;8.98;2.92;;;;;;;4.21;66.77;101038.14;1768577;80;21195;-57
2021/03/08 02:48:49;;;;;;;6.75;2.70;;;;;;;4.19;66.80;101032.89;1773189;79;21458;-58
2021/03/08 02:51:17;;;;;;;7.97;3.17;;;;;;;4.19;66.81;101034.19;1794496;79;21166;-57
2021/03/08 02:53:46;;;;;;;9.05;2.80;;;;;;;4.20;66.83;101036.37;1794664;79;21165;-57
2021/03/08 02:56:17;;;;;;;10.60;3.20;;;;;;;4.20;66.84;101027.25;1794444;79;22164;-57
2021/03/08 02:58:48;;;;;;;8.47;2.97;;;;;;;4.17;66.88;101023.28;1779749;80;21443;-58
2021/03/08 03:01:19;;;;;;;9.35;2.95;;;;;;;4.16;66.85;101028.92;1770036;79;21457;-58
2021/03/08 03:03:52;;;;;;;6.20;3.33;;;;;;;4.14;66.92;101031.02;1769691;79;21159;-57
2021/03/08 03:06:22;;;;;;;8.40;3.10;;;;;;;4.10;66.90;101027.88;1764611;81;21190;-57
2021/03/08 03:08:50;;;;;;;8.13;3.37;;;;;;;4.07;67.05;101030.42;1736922;81;21217;-57
2021/03/08 03:11:17;;;;;;;7.83;2.87;;;;;;;4.09;67.11;101026.14;1764546;81;21202;-57
2021/03/08 03:13:45;;;;;;;9.70;3.62;;;;;;;4.08;67.05;101027.84;1736861;81;21182;-57
2021/03/08 03:16:13;;;;;;;7.03;2.72;;;;;;;4.10;67.02;101026.18;1764621;81;21170;-57
2021/03/08 03:18:53;;;;;;;7.10;2.80;;;;;;;4.09;66.98;101019.64;1737627;81;21588;-57
2021/03/08 03:21:24;;;;;;;7.12;3.37;;;;;;;4.08;67.00;101016.13;1764556;81;21203;-57
2021/03/08 03:23:52;;;;;;;9.03;3.25;;;;;;;4.03;66.97;101010.83;1764723;81;21622;-57
2021/03/08 03:26:21;;;;;;;13.03;3.77;;;;;;;4.02;67.06;101016.90;1764946;81;21214;-56
2021/03/08 03:28:48;;;;;;;10.00;3.65;;;;;;;4.00;67.08;101018.56;1737648;81;21175;-56
2021/03/08 03:31:18;;;;;;;12.00;4.95;;;;;;;3.98;67.08;101028.08;1765102;79;21522;-57
2021/03/08 03:33:46;;;;;;;8.13;3.62;;;;;;;3.93;67.12;101028.38;1759331;81;21197;-57
2021/03/08 03:36:15;;;;;;;10.95;3.50;;;;;;;3.85;67.17;101049.02;1770798;80;21148;-57
2021/03/08 03:38:44;;;;;;;14.90;4.33;;;;;;;3.76;67.45;101072.23;1759473;81;21565;-56
2021/03/08 03:41:12;;;;;;;9.43;3.80;;;;;;;3.83;67.40;101072.84;1771032;80;21658;-56
2021/03/08 03:43:40;;;;;;;8.28;3.40;;;;;;;3.86;66.95;101055.13;1777345;80;21199;-56
2021/03/08 03:46:08;;;;;;;6.78;3.30;;;;;;;3.84;66.86;101052.45;1791013;80;21289;-56
2021/03/08 03:48:35;;;;;;;10.23;3.52;;;;;;;3.76;66.72;101053.14;1791123;79;21285;-56
2021/03/08 03:51:04;;;;;;;11.38;4.08;;;;;;;3.62;66.82;101074.49;1786443;80;21188;-56
2021/03/08 03:53:31;;;;;;;10.58;3.62;;;;;;;3.53;67.06;101079.44;1774745;79;21329;-56
2021/03/08 03:55:59;;;;;;;6.75;3.42;;;;;;;3.53;67.38;101083.34;1791826;80;21207;-56
2021/03/08 03:58:34;;;;;;;6.55;3.60;;;;;;;3.60;67.23;101069.65;1764087;81;21214;-56
2021/03/08 04:01:11;;;;;;;8.98;3.72;;;;;;;3.61;67.04;101075.75;1792082;80;21675;-56
2021/03/08 04:04:12;;;;;;;7.47;3.40;;;;;;;3.52;66.82;101070.76;1764041;81;21166;-57
2021/03/08 04:06:49;;;;;;;7.60;3.20;;;;;;;3.39;66.80;101075.18;1792208;80;21219;-56
2021/03/08 04:09:18;;;;;;;10.32;3.15;;;;;;;3.25;67.05;101078.72;1764014;81;21564;-56
2021/03/08 04:11:45;;;;;;;11.12;3.58;;;;;;;3.16;67.21;101070.64;1791835;80;21214;-56
2021/03/08 04:14:16;;;;;;;6.80;3.30;;;;;;;3.06;67.41;101064.33;1764211;81;21672;-55
2021/03/08 04:16:48;;;;;;;5.78;3.10;;;;;;;2.99;67.53;101068.46;1792150;80;21200;-55
2021/03/08 04:19:22;;;;;;;8.18;3.67;;;;;;;2.95;67.67;101063.14;1764295;80;21645;-55
2021/03/08 04:21:52;;;;;;;8.08;3.70;;;;;;;2.95;67.83;101047.55;1771529;79;21155;-56
2021/03/08 04:24:20;;;;;;;10.45;4.92;;;;;;;3.01;67.71;101039.04;1801645;78;21198;-56
2021/03/08 04:26:48;;;;;;;9.18;4.00;;;;;;;3.07;67.60;101028.80;1824351;78;21170;-55
2021/03/08 04:29:17;;;;;;;10.25;4.75;;;;;;;3.14;67.31;101032.91;1828252;78;21107;-55
2021/03/08 04:31:46;;;;;;;9.35;6.22;;;;;;;3.16;67.11;101044.25;1824510;78;21653;-56
2021/03/08 04:34:13;;;;;;;9.55;4.97;;;;;;;3.20;66.88;101049.09;1828304;78;21142;-55
2021/03/08 04:36:41;;;;;;;6.95;4.67;;;;;;;3.29;66.73;101049.33;1824546;78;22834;-56
2021/03/08 04:39:12;;;;;;;9.38;5.17;;;;;;;3.39;66.33;101036.59;1828048;78;21142;-56
2021/03/08 04:41:41;;;;;;;7.83;5.58;;;;;;;3.42;66.11;101032.77;1824564;78;21130;-57
2021/03/08 04:44:09;;;;;;;8.35;5.25;;;;;;;3.43;65.90;101037.11;1828457;78;21118;-56
2021/03/08 04:46:36;;;;;;;8.03;5.20;;;;;;;3.40;65.82;101027.93;1824439;78;21144;-55
2021/03/08 04:49:06;;;;;;;9.05;5.12;;;;;;;3.36;65.78;101034.78;1827996;78;21207;-56
2021/03/08 04:51:34;;;;;;;8.33;5.60;;;;;;;3.29;65.79;101027.66;1782373;79;21198;-56
2021/03/08 04:54:02;;;;;;;9.43;4.95;;;;;;;3.25;65.85;101031.02;1772114;80;21217;-56
2021/03/08 04:56:33;;;;;;;8.35;4.97;;;;;;;3.21;65.88;101032.66;1788615;80;21645;-55
2021/03/08 04:59:02;;;;;;;11.75;5.40;;;;;;;3.18;65.88;101031.28;1788593;80;21560;-55
2021/03/08 05:01:33;;;;;;;6.67;4.47;;;;;;;3.15;65.96;101029.47;1788538;80;22348;-55
2021/03/08 05:04:03;;;;;;;8.33;5.97;;;;;;;3.12;66.00;101030.70;1788794;80;21195;-55
2021/03/08 05:06:32;;;;;;;8.95;4.55;;;;;;;3.13;66.08;101023.77;1788136;80;21193;-55
2021/03/08 05:08:59;;;;;;;8.13;5.05;;;;;;;3.16;66.12;101031.25;1788549;80;21155;-55
2021/03/08 05:11:27;;;;;;;10.48;5.42;;;;;;;3.25;66.03;101028.41;1757022;81;21426;-55
2021/03/08 05:13:55;;;;;;;12.33;5.62;;;;;;;3.31;65.82;101032.07;1802307;78;22269;-55
2021/03/08 05:16:23;;;;;;;11.25;5.75;;;;;;;3.31;65.64;101034.67;1774787;80;21195;-55
2021/03/08 05:18:51;;;;;;;9.83;5.70;;;;;;;3.30;65.56;101031.59;1780747;80;21238;-55
2021/03/08 05:21:18;;;;;;;13.45;6.50;;;;;;;3.28;65.45;101033.69;1760914;81;21468;-55
2021/03/08 05:23:46;;;;;;;9.25;5.75;;;;;;;3.22;65.43;101033.14;1807455;79;21139;-55
2021/03/08 05:26:14;;;;;;;11.53;5.97;;;;;;;3.18;65.52;101035.19;1776463;80;21209;-55
2021/03/08 05:28:41;;;;;;;9.05;5.53;;;;;;;3.15;65.66;101040.30;1760906;80;21376;-55
2021/03/08 05:31:09;;;;;;;14.63;5.78;;;;;;;3.13;65.76;101043.27;1778033;80;21360;-56
2021/03/08 05:33:37;;;;;;;11.83;5.15;;;;;;;3.15;65.76;101041.17;1830843;77;21358;-55
2021/03/08 05:36:06;;;;;;;9.25;5.50;;;;;;;3.15;65.80;101033.37;1771604;80;21178;-55
2021/03/08 05:38:34;;;;;;;14.23;6.83;;;;;;;3.15;65.83;101041.17;1758874;78;21280;-55
2021/03/08 05:41:32;;;;;;;8.78;5.58;;;;;;;3.15;65.86;101040.30;1823583;78;21254;-55
2021/03/08 05:44:07;;;;;;;12.00;6.28;;;;;;;3.16;65.83;101042.95;1828720;78;21176;-55
2021/03/08 05:46:57;;;;;;;8.68;6.10;;;;;;;3.17;65.85;101040.78;1821155;78;21237;-55
2021/03/08 05:50:21;;;;;;;9.73;5.78;;;;;;;3.18;65.80;101039.09;1786697;80;21180;-55
2021/03/08 05:53:22;;;;;;;10.60;6.20;;;;;;;3.20;65.73;101037.39;1810925;78;21383;-55
2021/03/08 05:56:25;;;;;;;9.43;6.17;;;;;;;3.24;65.70;101042.28;1818869;78;21206;-55
2021/03/08 05:59:40;;;;;;;12.18;6.58;;;;;;;3.28;65.71;101044.99;1769415;80;21215;-55
2021/03/08 06:02:34;;;;;;;11.12;6.97;;;;;;;3.32;65.71;101036.84;1817405;78;21192;-54
2021/03/08 06:05:32;;;;;;;10.20;6.17;;;;;;;3.39;65.58;101040.50;1777209;80;21160;-55
2021/03/08 06:08:22;;;;;;;9.78;6.15;;;;;;;3.45;65.41;101040.66;1785944;79;22049;-55
2021/03/08 06:11:10;;;;;;;10.75;6.28;;;;;;;3.49;65.26;101040.77;1790675;79;21181;-55
2021/03/08 06:13:49;;;;;;;7.87;5.40;;;;;;;3.51;65.21;101044.27;1776861;80;21119;-55
2021/03/08 06:16:23;;;;;;;7.97;5.40;;;;;;;3.55;65.11;101048.25;1816124;78;21119;-56
2021/03/08 06:18:59;;;;;;;8.65;5.10;;;;;;;3.65;65.05;101047.25;1860724;76;22678;-55
2021/03/08 06:21:26;;;;;;;8.78;5.83;;;;;;;3.70;64.98;101053.86;1827377;78;21163;-54
2021/03/08 06:23:55;;;;;;;8.75;5.30;;;;;;;3.79;64.72;101050.61;1755785;81;22700;-54
2021/03/08 06:26:22;;;;;;;11.93;5.53;;;;;;;3.84;64.54;101051.16;1768672;80;21271;-54
2021/03/08 06:28:50;;;;;;;9.70;6.00;;;;;;;3.87;64.42;101053.86;1772313;80;21148;-54
2021/03/08 06:31:19;;;;;;;7.72;5.83;;;;;;;3.91;64.33;101054.80;1770428;80;21175;-54
2021/03/08 06:33:48;;;;;;;10.70;6.25;;;;;;;3.95;64.28;101056.64;1772568;80;21639;-54
2021/03/08 06:36:18;;;;;;;10.63;6.53;;;;;;;4.01;64.14;101060.69;1771906;80;21006;-55
2021/03/08 06:38:46;;;;;;;9.40;7.15;;;;;;;4.07;64.03;101060.36;1773137;80;21163;-55
2021/03/08 06:41:13;;;;;;;13.38;7.95;;;;;;;4.10;63.79;101058.73;1756244;81;21183;-56
2021/03/08 06:43:41;;;;;;;12.55;8.23;;;;;;;4.15;63.61;101051.89;1769134;80;21175;-56
2021/03/08 06:46:09;;;;;;;10.75;7.53;;;;;;;4.19;63.44;101052.86;1766877;80;21206;-55
2021/03/08 06:48:40;;;;;;;11.20;7.67;;;;;;;4.18;63.29;101049.35;1766503;80;21365;-54
2021/03/08 06:51:15;;;;;;;10.58;7.08;;;;;;;4.17;63.22;101048.02;1755669;81;21194;-56
2021/03/08 06:53:50;;;;;;;12.73;7.33;;;;;;;4.25;63.20;101040.41;1876845;76;22367;-55
2021/03/08 06:56:23;;;;;;;9.75;7.42;;;;;;;4.26;63.09;101040.84;1848054;77;21163;-55
2021/03/08 06:59:13;;;;;;;9.83;6.92;;;;;;;4.30;63.00;101040.07;1847500;77;21125;-55
2021/03/08 07:01:41;;;;;;;12.03;7.67;;;;;;;4.31;62.98;101040.10;1848509;77;21164;-58
2021/03/08 07:04:22;;;;;;;11.63;7.65;;;;;;;4.37;62.94;101031.55;1857898;77;21686;-57
2021/03/08 07:07:02;;;;;;;15.28;9.05;;;;;;;4.41;62.94;101034.69;1858809;77;21171;-57
2021/03/08 07:09:32;;;;;;;12.40;7.97;;;;;;;4.44;62.83;101033.85;1858977;77;22244;-56
2021/03/08 07:12:13;;;;;;;13.78;8.50;;;;;;;4.47;62.75;101030.91;1861413;76;21187;-55
2021/03/08 07:14:43;;;;;;;11.55;7.40;;;;;;;4.51;62.68;101028.83;1859147;76;21580;-55
2021/03/08 07:17:35;;;;;;;10.98;9.10;;;;;;;4.56;62.44;101027.19;1860848;76;21134;-57
2021/03/08 07:20:30;;;;;;;11.57;8.18;;;;;;;4.62;62.26;101034.66;1862135;76;21177;-57
2021/03/08 07:22:58;;;;;;;12.45;7.87;;;;;;;4.68;62.12;101036.13;1702031;82;21157;-57
2021/03/08 07:25:28;;;;;;;11.10;7.92;;;;;;;4.80;62.08;101023.76;1686011;83;22539;-57
2021/03/08 07:27:58;;;;;;;12.03;9.13;;;;;;;4.91;61.95;101022.22;1676089;85;21226;-57
2021/03/08 07:30:31;;;;;;;12.93;8.85;;;;;;;4.96;61.86;101018.40;1675903;85;21123;-56
2021/03/08 07:33:03;;;;;;;15.35;8.90;;;;;;;5.00;61.78;101018.48;1691577;84;21210;-56
2021/03/08 07:35:38;;;;;;;12.13;8.65;;;;;;;5.05;61.61;101018.59;1705347;84;21233;-58
2021/03/08 07:38:08;;;;;;;16.50;8.13;;;;;;;5.09;61.53;101013.47;1705406;84;22858;-56
2021/03/08 07:40:38;;;;;;;13.50;9.78;;;;;;;5.19;61.24;101018.84;1696191;84;21182;-55
2021/03/08 07:43:06;;;;;;;12.03;8.15;;;;;;;5.39;64.70;101020.49;1665501;85;21212;-56
2021/03/08 07:45:43;;;;;;;8.80;7.35;;;;;;;5.58;63.79;101013.45;1650693;86;21225;-58
2021/03/08 07:48:18;;;;;;;11.78;7.12;;;;;;;5.65;63.08;101011.81;1700456;84;22335;-58
2021/03/08 07:50:49;;;;;;;10.03;6.75;;;;;;;5.72;62.00;101004.53;1700698;84;21347;-57
2021/03/08 07:53:31;;;;;;;8.48;6.70;;;;;;;5.76;61.70;100999.82;1697163;83;21230;-58
2021/03/08 07:56:01;;;;;;;10.98;6.92;;;;;;;5.90;60.99;101000.02;1673214;82;21781;-58
2021/03/08 07:58:33;;;;;;;10.43;6.83;;;;;;;5.96;60.28;100992.27;1671893;83;21255;-58
2021/03/08 08:01:09;;;;;;;11.08;7.25;;;;;;;6.12;59.71;100992.11;1842278;76;22968;-58
2021/03/08 08:03:37;;;;;;;9.60;6.72;;;;;;;6.17;59.61;100992.17;1837310;77;21608;-56
2021/03/08 08:06:09;;;;;;;11.93;7.55;;;;;;;6.25;59.12;100987.05;1836702;77;22817;-57
2021/03/08 08:08:40;;;;;;;10.00;7.70;;;;;;;6.32;58.86;100983.66;1836906;77;21200;-57
2021/03/08 08:11:09;;;;;;;9.85;6.90;;;;;;;6.44;58.59;100986.86;1836501;77;21125;-57
2021/03/08 08:13:47;;;;;;;10.98;7.95;;;;;;;6.46;58.14;100989.95;1838094;77;21192;-62
2021/03/08 08:16:15;;;;;;;9.15;7.30;;;;;;;6.48;57.88;100983.44;1837427;77;21169;-62
2021/03/08 08:18:45;;;;;;;12.07;7.67;;;;;;;6.46;57.66;100984.73;1838078;77;21489;-60
2021/03/08 08:21:15;;;;;;;11.57;7.50;;;;;;;6.49;57.25;100981.28;1838631;78;21152;-61
2021/03/08 08:23:45;;;;;;;8.53;7.33;;;;;;;6.51;57.16;100973.88;1837355;76;21161;-61
2021/03/08 08:26:18;;;;;;;10.72;7.03;;;;;;;6.57;57.10;100974.83;1838384;77;21612;-60
2021/03/08 08:28:48;;;;;;;8.05;6.67;;;;;;;6.62;56.90;100971.42;1836990;77;21704;-61
2021/03/08 08:31:16;;;;;;;13.62;7.58;;;;;;;6.70;56.84;100962.35;1836309;77;22858;-61
2021/03/08 08:33:44;;;;;;;11.73;7.80;;;;;;;6.75;56.80;100956.73;1838169;78;21137;-61
2021/03/08 08:36:19;;;;;;;9.08;7.47;;;;;;;6.81;56.97;100956.82;1837660;76;21549;-62
2021/03/08 08:39:02;;;;;;;11.90;8.75;;;;;;;6.95;56.67;100947.80;1837822;77;21196;-61
2021/03/08 08:41:32;;;;;;;11.35;7.53;;;;;;;6.98;56.24;100947.83;1837160;77;21109;-62
2021/03/08 08:44:15;;;;;;;11.73;7.65;;;;;;;7.00;56.26;100941.30;1837477;77;22267;-70
2021/03/08 08:46:45;;;;;;;;;;;;;;;7.14;56.21;100944.94;1839820;77;21200;-55
2021/03/08 08:49:36;;;;;;;11.83;7.37;;;;;;;7.31;55.67;100948.13;1835015;77;20290;-65
2021/03/08 08:53:17;;;;;;;10.95;7.30;;;;;;;7.39;54.95;100939.48;1802849;77;21651;-65
2021/03/08 08:55:58;;;;;;;10.05;7.20;;;;;;;7.43;54.70;100939.06;1826872;77;21184;-62
2021/03/08 08:59:23;;;;;;;9.83;7.03;;;;;;;7.55;53.63;100928.67;1821425;77;21584;-64
2021/03/08 09:02:41;;;;;;;9.60;6.90;;;;;;;7.55;53.00;100931.29;1805693;76;21280;-65
2021/03/08 09:13:08;;;;;;;9.23;7.08;;;;;;;7.69;51.78;100927.48;1769979;79;21217;-56
2021/03/08 09:15:36;;;;;;;8.85;6.80;;;;;;;7.84;51.12;100929.73;1771881;79;21213;-55
2021/03/08 09:18:03;;;;;;;8.95;8.03;;;;;;;7.87;50.58;100930.64;1770630;78;21559;-55
2021/03/08 09:20:34;;;;;;;7.65;6.45;;;;;;;7.91;50.17;100933.73;1772299;79;21064;-55
2021/03/08 09:23:03;;;;;;;9.70;6.97;;;;;;;7.98;49.66;100933.77;1776068;78;21224;-55
2021/03/08 09:25:33;;;;;;;11.15;7.58;;;;;;;8.04;47.81;100933.80;1775189;78;21123;-55
2021/03/08 09:28:10;;;;;;;9.53;6.92;;;;;;;8.05;47.56;100929.88;1779208;79;21365;-53
2021/03/08 09:30:46;;;;;;;9.60;6.65;;;;;;;8.12;46.88;100925.96;1775151;79;21131;-53
2021/03/08 09:33:18;;;;;;;10.08;6.95;;;;;;;8.23;45.99;100930.39;1776161;79;21220;-53
2021/03/08 09:35:54;;;;;;;7.83;6.28;;;;;;;8.28;44.83;100928.68;1779566;79;21143;-54
2021/03/08 09:38:24;;;;;;;8.23;5.97;;;;;;;8.27;44.31;100921.67;1777317;79;21162;-54
2021/03/08 09:40:58;;;;;;;7.25;5.97;;;;;;;8.29;43.62;100925.61;1754125;79;22141;-54
2021/03/08 09:43:31;;;;;;;11.08;6.75;;;;;;;8.33;42.70;100922.14;1772933;79;21123;-54
2021/03/08 09:46:16;;;;;;;7.67;6.08;;;;;;;8.33;42.57;100920.83;1774630;79;21096;-55
2021/03/08 09:48:54;;;;;;;7.67;5.90;;;;;;;8.35;43.05;100917.77;1774995;78;21135;-55
2021/03/08 09:51:22;;;;;;;7.22;5.87;;;;;;;8.47;43.37;100908.23;1774880;79;21099;-55
2021/03/08 09:53:52;;;;;;;7.22;5.75;;;;;;;8.62;43.01;100909.58;1778869;79;21204;-55
2021/03/08 09:56:21;;;;;;;7.72;6.20;;;;;;;8.73;42.23;100908.29;1773896;79;21165;-55
2021/03/08 09:59:01;;;;;;;7.42;5.70;;;;;;;8.76;41.72;100909.64;1775262;79;21100;-55
2021/03/08 10:01:32;;;;;;;7.08;4.97;;;;;;;8.75;41.63;100910.50;1775177;78;21106;-54
2021/03/08 10:04:05;;;;;;;7.55;5.47;;;;;;;8.81;41.22;100894.77;1778879;78;21686;-54
2021/03/08 10:06:36;;;;;;;8.23;6.22;;;;;;;8.88;41.28;100898.28;1774748;79;21371;-55
2021/03/08 10:09:20;;;;;;;7.55;5.80;;;;;;;8.96;40.97;100888.20;1774432;79;21176;-55
2021/03/08 10:12:00;;;;;;;7.55;5.90;;;;;;;9.01;40.53;100888.66;1711386;81;21195;-55
2021/03/08 10:14:29;;;;;;;6.90;4.80;;;;;;;9.03;40.25;100884.30;1761878;79;21134;-55
2021/03/08 10:17:08;;;;;;;7.03;5.40;;;;;;;9.07;40.42;100882.09;1762708;80;21111;-55
2021/03/08 10:19:38;;;;;;;5.85;5.25;;;;;;;9.19;40.90;100880.80;1762195;80;21269;-55
2021/03/08 10:22:07;;;;;;;7.75;5.72;;;;;;;9.35;40.90;100875.53;1771221;80;21152;-56
2021/03/08 10:24:41;;;;;;;8.35;5.58;;;;;;;9.51;40.73;100861.50;1765103;80;21101;-55
2021/03/08 10:27:12;;;;;;;8.00;5.92;;;;;;;9.62;40.70;100862.78;1763973;80;21116;-55
2021/03/08 10:29:41;;;;;;;7.87;5.80;;;;;;;9.69;40.58;100869.78;1765185;80;21597;-54
2021/03/08 10:32:10;;;;;;;7.47;5.00;;;;;;;9.83;40.38;100861.88;1773704;80;21250;-55
2021/03/08 10:34:38;;;;;;;7.55;5.42;;;;;;;9.93;39.61;100853.50;1767403;80;21138;-56
2021/03/08 10:37:10;;;;;;;7.53;5.00;;;;;;;10.00;39.63;100849.52;1770974;79;21112;-55
2021/03/08 10:39:39;;;;;;;8.23;6.30;;;;;;;10.09;39.13;100852.56;1763997;80;21530;-55
2021/03/08 10:42:07;;;;;;;9.08;6.33;;;;;;;10.16;38.82;100849.48;1770597;80;21156;-56
2021/03/08 10:44:35;;;;;;;8.80;5.75;;;;;;;10.22;39.05;100850.75;1766214;79;21295;-56
2021/03/08 10:47:15;;;;;;;6.97;5.08;;;;;;;10.31;38.61;100846.75;1766086;80;21104;-56
2021/03/08 10:49:48;;;;;;;7.55;5.22;;;;;;;10.38;37.43;100842.39;1772793;78;21198;-56
2021/03/08 10:52:16;;;;;;;8.23;5.37;;;;;;;10.37;36.61;100836.68;1780009;78;21068;-56
2021/03/08 10:54:44;;;;;;;6.28;5.08;;;;;;;10.34;37.10;100827.50;1782498;78;21108;-56
2021/03/08 10:57:12;;;;;;;8.98;5.22;;;;;;;10.39;37.61;100828.33;1782879;78;21196;-56
2021/03/08 10:59:57;;;;;;;5.72;5.10;;;;;;;10.49;38.00;100826.08;1765670;79;21555;-56
2021/03/08 11:02:24;;;;;;;8.53;5.08;;;;;;;10.64;37.41;100819.83;1762625;79;21108;-54
2021/03/08 11:04:56;;;;;;;6.33;5.10;;;;;;;10.74;36.58;100812.76;1764220;80;21543;-56
2021/03/08 11:07:37;;;;;;;7.03;4.33;;;;;;;10.87;37.03;100809.14;1855377;76;22802;-54
2021/03/08 11:10:09;;;;;;;5.75;4.62;;;;;;;10.94;36.55;100800.77;1849152;76;21265;-55
2021/03/08 11:12:40;;;;;;;5.78;3.80;;;;;;;11.00;36.35;100801.12;1823929;76;21411;-55
2021/03/08 11:15:11;;;;;;;7.97;4.20;;;;;;;11.01;33.42;100809.02;1815419;76;21174;-55
2021/03/08 11:17:41;;;;;;;4.40;3.65;;;;;;;10.93;33.97;100803.41;1820377;77;21640;-56
2021/03/08 11:20:15;;;;;;;5.28;4.15;;;;;;;10.84;33.50;100794.69;1817907;76;21163;-56
2021/03/08 11:22:58;;;;;;;6.03;4.08;;;;;;;10.88;33.69;100796.42;1858494;75;22449;-55
2021/03/08 11:25:36;;;;;;;7.97;4.60;;;;;;;10.87;34.46;100799.06;1827483;77;21171;-54
2021/03/08 11:28:12;;;;;;;7.47;4.33;;;;;;;10.90;36.75;100791.14;1829315;76;22085;-55
2021/03/08 11:30:46;;;;;;;5.95;4.65;;;;;;;10.97;39.74;100790.63;1834480;76;21473;-54
2021/03/08 11:33:14;;;;;;;5.20;4.37;;;;;;;11.06;38.34;100791.43;1830443;76;21168;-54
2021/03/08 11:35:42;;;;;;;4.50;4.05;;;;;;;11.07;36.26;100783.97;1761565;79;21174;-54
2021/03/08 11:38:15;;;;;;;6.12;4.75;;;;;;;11.03;35.53;100780.93;1771762;78;21236;-55
2021/03/08 11:40:46;;;;;;;6.08;4.10;;;;;;;10.99;35.03;100775.26;1800916;78;21198;-54
2021/03/08 11:43:22;;;;;;;6.37;4.80;;;;;;;10.98;35.66;100773.95;1799035;78;21151;-54
2021/03/08 11:45:51;;;;;;;8.28;4.55;;;;;;;11.02;35.04;100781.81;1794631;78;21733;-54
2021/03/08 11:48:23;;;;;;;5.95;4.35;;;;;;;11.10;35.21;100785.68;1769928;78;21154;-54
2021/03/08 11:50:51;;;;;;;;;;;;;;;11.14;34.37;100782.13;1769695;79;21506;-53
2021/03/08 11:53:19;;;;;;;6.67;5.22;;;;;;;11.08;32.83;100787.47;1765920;80;21219;-53
2021/03/08 11:55:48;;;;;;;7.62;5.40;;;;;;;10.90;33.00;100774.89;1767314;79;21173;-55
2021/03/08 11:58:20;;;;;;;7.15;5.20;;;;;;;10.81;32.92;100779.38;1763198;79;21179;-54
2021/03/08 12:00:48;;;;;;;7.90;5.17;;;;;;;10.69;31.68;100783.84;1767723;79;21209;-55
2021/03/08 12:03:15;;;;;;;8.10;4.95;;;;;;;10.54;31.88;100771.69;1796676;77;21230;-53
2021/03/08 12:05:43;;;;;;;6.37;5.08;;;;;;;10.42;31.87;100773.52;1795468;77;21470;-54